createdAt,value
2019-03-22T00:01:48.798Z,96992.96
2019-03-22T00:04:37.131Z,96993.77
2019-03-22T00:07:25.042Z,97001.28
2019-03-22T00:10:13.446Z,96996.40
2019-03-22T00:13:02.053Z,96989.45
2019-03-22T00:15:50.483Z,96996.70
2019-03-22T00:18:38.839Z,96995.03
2019-03-22T00:21:27.356Z,96993.44
2019-03-22T00:24:15.671Z,96986.47
2019-03-22T00:27:15.679Z,96991.84
2019-03-22T00:29:54.710Z,96986.72
2019-03-22T00:32:42.820Z,96983.23
2019-03-22T00:35:30.659Z,96979.72
2019-03-22T00:38:19.087Z,96985.67
2019-03-22T00:41:07.221Z,96981.09
2019-03-22T00:43:55.462Z,96979.47
2019-03-22T00:46:43.356Z,96988.06
2019-03-22T00:49:31.632Z,96978.08
2019-03-22T00:52:19.652Z,96986.08
2019-03-22T00:55:07.644Z,96984.10
2019-03-22T00:57:55.819Z,96986.55
2019-03-22T01:00:44.339Z,96984.38
2019-03-22T01:03:32.347Z,96986.03
2019-03-22T01:06:21.255Z,96986.28
2019-03-22T01:09:09.723Z,96987.38
2019-03-22T01:11:57.941Z,96991.64
2019-03-22T01:14:46.193Z,96992.63
2019-03-22T01:17:34.545Z,96984.78
2019-03-22T01:20:22.686Z,96983.62
2019-03-22T01:23:11.765Z,96982.98
2019-03-22T01:26:00.554Z,96980.34
2019-03-22T01:28:48.868Z,96981.64
2019-03-22T01:31:38.308Z,96982.98
2019-03-22T01:34:26.733Z,96981.64
2019-03-22T01:37:15.131Z,96985.41
2019-03-22T01:40:03.458Z,96977.58
2019-03-22T01:42:51.516Z,96981.36
2019-03-22T01:45:39.820Z,96985.22
2019-03-22T01:48:28.054Z,96987.85
2019-03-22T01:51:16.041Z,96992.54
2019-03-22T01:54:04.345Z,96985.52
2019-03-22T01:56:53.136Z,96985.28
2019-03-22T01:59:41.162Z,96988.07
2019-03-22T02:02:29.862Z,96985.04
2019-03-22T02:05:18.215Z,96983.90
2019-03-22T02:08:06.537Z,96995.23
2019-03-22T02:10:55.006Z,96982.93
2019-03-22T02:13:43.229Z,96976.89
2019-03-22T02:16:31.904Z,96984.49
2019-03-22T02:19:20.206Z,96983.66
2019-03-22T02:22:09.265Z,96982.50
2019-03-22T02:24:57.197Z,96989.91
2019-03-22T02:27:45.484Z,96991.45
2019-03-22T02:30:33.715Z,96993.29
2019-03-22T02:33:22.385Z,96991.50
2019-03-22T02:36:10.896Z,96990.47
2019-03-22T02:42:59.004Z,96987.42
2019-03-22T02:45:46.891Z,96986.78
2019-03-22T02:48:35.447Z,96984.88
2019-03-22T02:51:23.964Z,96981.92
2019-03-22T02:54:12.487Z,96981.28
2019-03-22T02:57:01.101Z,96985.30
2019-03-22T02:59:49.226Z,96983.95
2019-03-22T03:02:37.483Z,96986.95
2019-03-22T03:05:25.739Z,96988.02
2019-03-22T03:08:14.342Z,96989.83
2019-03-22T03:11:02.323Z,96989.47
2019-03-22T03:13:50.900Z,96998.84
2019-03-22T03:16:38.773Z,96994.82
2019-03-22T03:19:27.073Z,97001.87
2019-03-22T03:22:15.142Z,97002.38
2019-03-22T03:25:03.702Z,97009.41
2019-03-22T03:27:52.236Z,97002.05
2019-03-22T03:30:40.401Z,96999.36
2019-03-22T03:33:28.498Z,97008.48
2019-03-22T03:36:16.630Z,97002.09
2019-03-22T03:39:05.433Z,97003.81
2019-03-22T03:41:53.705Z,97008.20
2019-03-22T03:44:42.595Z,97014.16
2019-03-22T03:47:30.842Z,97016.90
2019-03-22T03:50:18.754Z,97007.71
2019-03-22T03:53:07.077Z,97007.95
2019-03-22T03:55:55.204Z,97014.90
2019-03-22T03:58:52.105Z,97015.58
2019-03-22T04:01:33.623Z,97022.17
2019-03-22T04:04:21.451Z,97027.59
2019-03-22T04:07:09.718Z,97023.55
2019-03-22T04:09:58.396Z,97026.41
2019-03-22T04:12:46.623Z,97022.03
2019-03-22T04:15:34.930Z,97038.30
2019-03-22T04:18:23.494Z,97032.83
2019-03-22T04:21:11.392Z,97032.30
2019-03-22T04:23:59.785Z,97036.27
2019-03-22T04:26:48.341Z,97040.98
2019-03-22T04:29:36.716Z,97035.09
2019-03-22T04:32:24.865Z,97035.32
2019-03-22T04:35:12.929Z,97035.66
2019-03-22T04:38:01.448Z,97037.50
2019-03-22T04:40:49.895Z,97043.07
2019-03-22T04:43:38.075Z,97038.47
2019-03-22T04:46:26.931Z,97030.71
2019-03-22T04:49:15.670Z,97035.70
2019-03-22T04:52:04.354Z,97043.02
2019-03-22T04:54:53.957Z,97042.91
2019-03-22T04:57:43.442Z,97042.81
2019-03-22T05:00:31.665Z,97049.72
2019-03-22T05:03:21.462Z,97051.18
2019-03-22T05:06:11.227Z,97049.63
2019-03-22T05:09:00.299Z,97057.20
2019-03-22T05:11:49.625Z,97055.32
2019-03-22T05:14:40.100Z,97057.47
2019-03-22T05:17:28.754Z,97052.73
2019-03-22T05:20:17.569Z,97047.90
2019-03-22T05:23:06.652Z,97047.42
2019-03-22T05:25:55.966Z,97056.81
2019-03-22T05:28:44.215Z,97061.81
2019-03-22T05:32:06.570Z,97067.95
2019-03-22T05:34:55.221Z,97065.43
2019-03-22T05:37:43.381Z,97072.39
2019-03-22T05:40:31.412Z,97074.22
2019-03-22T05:43:19.858Z,97073.52
2019-03-22T05:46:08.324Z,97078.16
2019-03-22T05:48:56.614Z,97077.45
2019-03-22T05:51:44.968Z,97073.30
2019-03-22T05:54:33.546Z,97083.70
2019-03-22T05:57:21.502Z,97082.77
2019-03-22T06:00:10.023Z,97081.26
2019-03-22T06:02:58.448Z,97082.91
2019-03-22T06:05:46.776Z,97087.78
2019-03-22T06:08:35.261Z,97085.53
2019-03-22T06:11:23.822Z,97082.95
2019-03-22T06:14:12.045Z,97087.10
2019-03-22T06:17:00.369Z,97086.70
2019-03-22T06:19:48.566Z,97088.17
2019-03-22T06:22:37.063Z,97097.48
2019-03-22T06:25:24.964Z,97092.95
2019-03-22T06:28:13.619Z,97094.70
2019-03-22T06:31:01.661Z,97099.66
2019-03-22T06:33:49.983Z,97095.34
2019-03-22T06:36:38.224Z,97092.13
2019-03-22T06:39:26.369Z,97092.60
2019-03-22T06:42:15.095Z,97090.52
2019-03-22T06:45:03.506Z,97087.45
2019-03-22T06:47:51.545Z,97088.60
2019-03-22T06:50:39.967Z,97086.17
2019-03-22T06:53:28.106Z,97090.94
2019-03-22T06:56:16.707Z,97076.86
2019-03-22T06:59:05.001Z,97078.49
2019-03-22T07:01:53.470Z,97072.14
2019-03-22T07:04:41.693Z,97070.04
2019-03-22T07:07:29.555Z,97069.90
2019-03-22T07:10:17.576Z,97075.98
2019-03-22T07:13:05.876Z,97069.88
2019-03-22T07:15:54.505Z,97074.11
2019-03-22T07:18:43.183Z,97075.08
2019-03-22T07:21:31.533Z,97076.06
2019-03-22T07:24:20.577Z,97086.78
2019-03-22T07:27:09.014Z,97080.33
2019-03-22T07:29:57.785Z,97080.69
2019-03-22T07:32:46.375Z,97083.14
2019-03-22T07:35:34.948Z,97080.19
2019-03-22T07:38:22.903Z,97078.63
2019-03-22T07:41:11.353Z,97086.69
2019-03-22T07:43:59.790Z,97079.32
2019-03-22T07:46:48.317Z,97081.00
2019-03-22T07:49:36.573Z,97070.84
2019-03-22T07:52:25.057Z,97070.96
2019-03-22T07:55:13.773Z,97075.55
2019-03-22T07:58:02.174Z,97066.02
2019-03-22T08:00:50.441Z,97069.05
2019-03-22T08:03:38.795Z,97068.98
2019-03-22T08:06:26.851Z,97070.55
2019-03-22T08:09:15.436Z,97062.91
2019-03-22T08:12:03.917Z,97067.33
2019-03-22T08:14:52.347Z,97063.47
2019-03-22T08:17:40.895Z,97062.71
2019-03-22T08:20:29.336Z,97063.05
2019-03-22T08:23:24.863Z,97064.27
2019-03-22T08:26:12.709Z,97065.13
2019-03-22T08:29:01.017Z,97071.89
2019-03-22T08:31:49.750Z,97073.33
2019-03-22T08:34:37.964Z,97072.16
2019-03-22T08:37:26.336Z,97076.47
2019-03-22T08:40:14.615Z,97075.49
2019-03-22T08:43:03.118Z,97074.39
2019-03-22T08:45:51.604Z,97077.16
2019-03-22T08:48:40.403Z,97080.25
2019-03-22T08:51:29.862Z,97077.88
2019-03-22T08:54:18.578Z,97080.46
2019-03-22T08:57:06.481Z,97071.00
2019-03-22T08:59:54.456Z,97077.49
2019-03-22T09:02:42.974Z,97080.67
2019-03-22T09:05:31.437Z,97073.19
2019-03-22T09:08:20.252Z,97066.52
2019-03-22T09:11:08.378Z,97068.53
2019-03-22T09:13:56.651Z,97065.83
2019-03-22T09:16:44.950Z,97068.04
2019-03-22T09:19:33.310Z,97057.56
2019-03-22T09:22:21.667Z,97071.22
2019-03-22T09:25:10.208Z,97065.38
2019-03-22T09:27:58.922Z,97067.01
2019-03-22T09:30:47.458Z,97068.83
2019-03-22T09:33:35.499Z,97056.16
2019-03-22T09:36:24.111Z,97058.67
2019-03-22T09:39:12.690Z,97054.85
2019-03-22T09:42:00.952Z,97049.25
2019-03-22T09:44:49.719Z,97053.25
2019-03-22T09:47:38.401Z,97046.78
2019-03-22T09:50:26.597Z,97043.08
2019-03-22T09:53:14.993Z,97043.69
2019-03-22T09:56:03.533Z,97043.69
2019-03-22T09:58:51.877Z,97045.23
2019-03-22T10:01:40.114Z,97053.43
2019-03-22T10:04:28.580Z,97051.82
2019-03-22T10:07:16.999Z,97048.38
2019-03-22T10:10:06.054Z,97040.66
2019-03-22T10:12:54.769Z,97042.70
2019-03-22T10:15:43.160Z,97034.59
2019-03-22T10:18:31.535Z,97036.42
2019-03-22T10:21:22.786Z,97027.38
2019-03-22T10:24:10.052Z,97028.86
2019-03-22T10:26:58.518Z,97028.64
2019-03-22T10:29:46.830Z,97017.88
2019-03-22T10:32:35.195Z,97023.01
2019-03-22T10:35:26.329Z,97022.19
2019-03-22T10:38:16.514Z,97019.34
2019-03-22T10:41:03.777Z,97012.08
2019-03-22T10:43:52.040Z,97010.09
2019-03-22T10:46:40.656Z,97000.20
2019-03-22T10:49:28.748Z,96994.11
2019-03-22T10:52:18.076Z,96998.08
2019-03-22T10:55:23.210Z,96997.31
2019-03-22T10:57:56.439Z,96992.84
2019-03-22T11:00:44.907Z,96989.94
2019-03-22T11:03:33.290Z,96989.72
2019-03-22T11:06:26.122Z,96985.69
2019-03-22T11:09:11.207Z,96988.89
2019-03-22T11:11:59.757Z,96989.36
2019-03-22T11:14:48.106Z,96982.06
2019-03-22T11:17:36.311Z,96976.30
2019-03-22T11:20:24.651Z,96979.34
2019-03-22T11:23:12.960Z,96973.23
2019-03-22T11:26:04.361Z,96964.07
2019-03-22T11:28:52.120Z,96963.48
2019-03-22T11:31:40.476Z,96959.63
2019-03-22T11:34:28.848Z,96955.76
2019-03-22T11:37:17.116Z,96950.91
2019-03-22T11:40:07.548Z,96948.95
2019-03-22T11:42:55.840Z,96949.34
2019-03-22T11:45:43.683Z,96947.14
2019-03-22T11:48:32.124Z,96938.57
2019-03-22T11:51:20.655Z,96944.53
2019-03-22T11:54:08.863Z,96943.41
2019-03-22T11:56:56.757Z,96944.07
2019-03-22T11:59:45.282Z,96937.78
2019-03-22T12:02:33.589Z,96940.69
2019-03-22T12:05:22.001Z,96944.89
2019-03-22T12:08:09.918Z,96933.83
2019-03-22T12:10:58.502Z,96933.44
2019-03-22T12:13:46.905Z,96931.02
2019-03-22T12:16:34.851Z,96924.64
2019-03-22T12:19:23.052Z,96930.73
2019-03-22T12:22:11.558Z,96929.14
2019-03-22T12:24:59.997Z,96921.27
2019-03-22T12:27:48.755Z,96922.63
2019-03-22T12:30:36.902Z,96927.64
2019-03-22T12:33:24.944Z,96928.22
2019-03-22T12:36:13.637Z,96927.15
2019-03-22T12:39:02.340Z,96926.56
2019-03-22T12:41:50.193Z,96921.51
2019-03-22T12:44:38.798Z,96924.72
2019-03-22T12:47:27.424Z,96917.02
2019-03-22T12:50:15.703Z,96912.83
2019-03-22T12:53:04.040Z,96913.45
2019-03-22T12:55:52.720Z,96907.39
2019-03-22T12:58:40.915Z,96899.61
2019-03-22T13:01:29.216Z,96894.98
2019-03-22T13:04:17.183Z,96898.17
2019-03-22T13:07:05.628Z,96893.52
2019-03-22T13:09:54.245Z,96893.84
2019-03-22T13:12:42.869Z,96892.02
2019-03-22T13:15:30.943Z,96890.31
2019-03-22T13:18:19.239Z,96887.91
2019-03-22T13:21:07.356Z,96891.57
2019-03-22T13:23:55.534Z,96888.59
2019-03-22T13:26:43.719Z,96889.98
2019-03-22T13:29:32.310Z,96892.03
2019-03-22T13:32:20.312Z,96893.16
2019-03-22T13:35:08.951Z,96896.27
2019-03-22T13:37:57.139Z,96886.86
2019-03-22T13:40:45.498Z,96888.12
2019-03-22T13:43:34.004Z,96884.94
2019-03-22T13:46:22.826Z,96883.13
2019-03-22T13:49:10.976Z,96886.75
2019-03-22T13:51:59.540Z,96882.94
2019-03-22T13:54:48.008Z,96875.05
2019-03-22T13:57:36.549Z,96877.42
2019-03-22T14:00:24.378Z,96877.05
2019-03-22T14:03:12.233Z,96879.12
2019-03-22T14:06:00.587Z,96880.48
2019-03-22T14:08:49.217Z,96867.47
2019-03-22T14:11:37.643Z,96862.63
2019-03-22T14:14:25.557Z,96864.35
2019-03-22T14:17:13.893Z,96857.78
2019-03-22T14:20:10.974Z,96860.05
2019-03-22T14:22:53.887Z,96855.27
2019-03-22T14:25:42.285Z,96853.84
2019-03-22T14:28:30.424Z,96859.46
2019-03-22T14:31:18.547Z,96857.91
2019-03-22T14:34:07.019Z,96856.86
2019-03-22T14:36:54.956Z,96854.48
2019-03-22T14:39:43.102Z,96856.77
2019-03-22T14:42:31.598Z,96856.77
2019-03-22T14:45:20.237Z,96849.48
2019-03-22T14:48:08.745Z,96851.31
2019-03-22T14:50:57.009Z,96855.20
2019-03-22T14:53:46.476Z,96850.44
2019-03-22T14:56:34.857Z,96847.23
2019-03-22T14:59:23.507Z,96845.89
2019-03-22T15:02:11.664Z,96853.20
2019-03-22T15:04:59.760Z,96854.09
2019-03-22T15:07:47.633Z,96849.31
2019-03-22T15:10:35.637Z,96859.26
2019-03-22T15:13:42.656Z,96852.52
2019-03-22T15:16:50.116Z,96851.37
2019-03-22T15:19:57.686Z,96843.84
2019-03-22T15:23:03.458Z,96841.45
2019-03-22T15:26:09.361Z,96847.59
2019-03-22T15:29:21.121Z,96843.84
2019-03-22T15:32:17.773Z,96836.77
2019-03-22T15:35:23.748Z,96839.02
2019-03-22T15:38:29.704Z,96835.85
2019-03-22T15:41:17.920Z,96838.23
2019-03-22T15:44:06.647Z,96831.05
2019-03-22T15:46:55.402Z,96831.28
2019-03-22T15:49:43.996Z,96830.95
2019-03-22T15:52:32.879Z,96834.95
2019-03-22T15:55:21.301Z,96827.98
2019-03-22T15:58:09.379Z,96822.86
2019-03-22T16:00:57.427Z,96825.14
2019-03-22T16:03:45.666Z,96820.80
2019-03-22T16:06:34.796Z,96820.36
2019-03-22T16:09:22.880Z,96823.79
2019-03-22T16:12:10.819Z,96823.09
2019-03-22T16:14:59.381Z,96818.55
2019-03-22T16:17:47.730Z,96821.51
2019-03-22T16:20:36.664Z,96822.55
2019-03-22T16:23:24.990Z,96815.84
2019-03-22T16:26:13.450Z,96817.31
2019-03-22T16:29:01.389Z,96815.59
2019-03-22T16:31:49.809Z,96806.01
2019-03-22T16:34:38.120Z,96813.55
2019-03-22T16:37:26.550Z,96805.78
2019-03-22T16:40:23.843Z,96809.20
2019-03-22T16:43:04.599Z,96799.84
2019-03-22T16:45:52.947Z,96800.55
2019-03-22T16:48:42.971Z,96797.55
2019-03-22T16:51:31.155Z,96799.13
2019-03-22T16:54:19.323Z,96799.33
2019-03-22T16:57:07.245Z,96799.33
2019-03-22T16:59:55.218Z,96798.17
2019-03-22T17:02:43.516Z,96807.85
2019-03-22T17:05:31.991Z,96809.30
2019-03-22T17:08:19.830Z,96809.72
2019-03-22T17:11:07.804Z,96800.89
2019-03-22T17:13:55.987Z,96806.72
2019-03-22T17:16:44.256Z,96803.69
2019-03-22T17:19:32.738Z,96805.50
2019-03-22T17:22:21.137Z,96809.25
2019-03-22T17:25:09.490Z,96813.33
2019-03-22T17:27:58.029Z,96803.64
2019-03-22T17:30:46.252Z,96806.52
2019-03-22T17:33:34.413Z,96809.81
2019-03-22T17:36:22.658Z,96802.89
2019-03-22T17:39:10.687Z,96805.52
2019-03-22T17:41:59.152Z,96805.84
2019-03-22T17:44:47.292Z,96809.25
2019-03-22T17:47:35.562Z,96807.73
2019-03-22T17:50:24.078Z,96809.98
2019-03-22T17:53:12.644Z,96808.27
2019-03-22T17:56:01.078Z,96803.98
2019-03-22T17:58:49.338Z,96807.28
2019-03-22T18:01:37.854Z,96807.91
2019-03-22T18:04:26.292Z,96809.36
2019-03-22T18:07:14.479Z,96816.80
2019-03-22T18:10:02.823Z,96814.50
2019-03-22T18:12:51.529Z,96808.71
2019-03-22T18:15:40.318Z,96809.75
2019-03-22T18:18:28.884Z,96812.80
2019-03-22T18:21:17.218Z,96819.67
2019-03-22T18:24:05.852Z,96809.11
2019-03-22T18:26:54.789Z,96814.16
2019-03-22T18:29:42.976Z,96817.67
2019-03-22T18:32:31.336Z,96816.30
2019-03-22T18:35:19.312Z,96819.66
2019-03-22T18:38:08.035Z,96813.97
2019-03-22T18:40:56.508Z,96815.96
2019-03-22T18:43:44.918Z,96813.70
2019-03-22T18:46:33.185Z,96820.75
2019-03-22T18:49:22.165Z,96828.73
2019-03-22T18:52:10.135Z,96824.73
2019-03-22T18:54:58.351Z,96826.98
2019-03-22T18:57:46.716Z,96823.80
2019-03-22T19:00:34.629Z,96824.54
2019-03-22T19:03:24.416Z,96834.23
2019-03-22T19:06:12.442Z,96825.95
2019-03-22T19:09:00.711Z,96829.22
2019-03-22T19:11:48.919Z,96830.46
2019-03-22T19:14:37.392Z,96824.52
2019-03-22T19:17:25.729Z,96826.34
2019-03-22T19:20:14.643Z,96829.50
2019-03-22T19:23:03.144Z,96818.59
2019-03-22T19:25:51.100Z,96818.62
2019-03-22T19:28:40.026Z,96824.85
2019-03-22T19:31:28.272Z,96830.70
2019-03-22T19:34:16.429Z,96830.24
2019-03-22T19:37:04.313Z,96827.97
2019-03-22T19:39:52.823Z,96829.08
2019-03-22T19:42:41.666Z,96835.63
2019-03-22T19:45:29.741Z,96834.48
2019-03-22T19:48:18.037Z,96832.85
2019-03-22T19:51:06.605Z,96828.99
2019-03-22T19:53:54.998Z,96836.97
2019-03-22T19:56:43.147Z,96836.26
2019-03-22T19:59:31.712Z,96835.44
2019-03-22T20:02:20.038Z,96827.04
2019-03-22T20:05:08.759Z,96829.65
2019-03-22T20:07:57.567Z,96827.79
2019-03-22T20:10:45.685Z,96831.61
2019-03-22T20:13:33.758Z,96831.96
2019-03-22T20:16:22.140Z,96833.81
2019-03-22T20:19:10.835Z,96834.38
2019-03-22T20:21:59.524Z,96839.61
2019-03-22T20:24:48.013Z,96842.68
2019-03-22T20:27:36.243Z,96845.31
2019-03-22T20:30:24.245Z,96843.77
2019-03-22T20:33:13.006Z,96841.91
2019-03-22T20:36:01.511Z,96846.16
2019-03-22T20:38:51.129Z,96843.35
2019-03-22T20:41:39.277Z,96845.91
2019-03-22T20:44:33.903Z,96848.80
2019-03-22T20:47:18.113Z,96850.41
2019-03-22T20:50:06.844Z,96848.91
2019-03-22T20:52:54.640Z,96854.80
2019-03-22T20:55:42.887Z,96847.26
2019-03-22T20:58:31.629Z,96848.22
2019-03-22T21:01:20.277Z,96853.39
2019-03-22T21:04:08.621Z,96854.94
2019-03-22T21:06:56.526Z,96854.06
2019-03-22T21:09:44.724Z,96855.55
2019-03-22T21:12:32.916Z,96856.23
2019-03-22T21:15:24.657Z,96853.89
2019-03-22T21:18:11.116Z,96850.56
2019-03-22T21:20:59.685Z,96850.31
2019-03-22T21:23:47.738Z,96854.22
2019-03-22T21:26:36.449Z,96852.46
2019-03-22T21:29:24.617Z,96849.21
2019-03-22T21:32:12.549Z,96842.70
2019-03-22T21:35:00.548Z,96848.10
2019-03-22T21:37:48.567Z,96847.25
2019-03-22T21:40:36.929Z,96850.05
2019-03-22T21:43:25.531Z,96843.23
2019-03-22T21:46:14.222Z,96844.99
2019-03-22T21:49:02.573Z,96844.25
2019-03-22T21:51:51.252Z,96840.09
2019-03-22T21:54:40.020Z,96844.73
2019-03-22T21:57:28.352Z,96839.42
2019-03-22T22:00:16.987Z,96846.45
2019-03-22T22:03:05.478Z,96837.21
2019-03-22T22:05:53.684Z,96842.47
2019-03-22T22:08:41.874Z,96839.61
2019-03-22T22:11:30.134Z,96844.45
2019-03-22T22:14:18.370Z,96838.98
2019-03-22T22:17:06.708Z,96834.78
2019-03-22T22:19:54.693Z,96835.08
2019-03-22T22:22:42.964Z,96834.22
2019-03-22T22:25:31.273Z,96832.02
2019-03-22T22:28:19.972Z,96835.31
2019-03-22T22:31:08.139Z,96830.78
2019-03-22T22:33:56.044Z,96833.79
2019-03-22T22:36:44.379Z,96830.91
2019-03-22T22:39:32.790Z,96833.02
2019-03-22T22:42:21.442Z,96830.25
2019-03-22T22:45:11.476Z,96836.23
2019-03-22T22:48:00.062Z,96831.70
2019-03-22T22:50:48.329Z,96837.58
2019-03-22T22:53:36.216Z,96841.31
2019-03-22T22:56:24.846Z,96834.23
2019-03-22T22:59:13.455Z,96839.19
2019-03-22T23:02:01.952Z,96836.84
2019-03-22T23:04:50.129Z,96838.67
2019-03-22T23:07:38.206Z,96839.67
2019-03-22T23:10:26.455Z,96838.92
2019-03-22T23:13:14.453Z,96837.70
2019-03-22T23:16:02.646Z,96839.48
2019-03-22T23:18:51.106Z,96841.97
2019-03-22T23:21:40.125Z,96843.88
2019-03-22T23:24:28.342Z,96842.44
2019-03-22T23:27:16.868Z,96846.28
2019-03-22T23:30:05.676Z,96849.06
2019-03-22T23:32:54.320Z,96848.98
2019-03-22T23:35:42.839Z,96842.96
2019-03-22T23:38:31.059Z,96851.56
2019-03-22T23:41:19.140Z,96847.84
2019-03-22T23:44:07.893Z,96849.95
2019-03-22T23:46:56.419Z,96853.52
2019-03-22T23:49:44.342Z,96852.04
2019-03-22T23:52:32.616Z,96856.39
2019-03-22T23:55:20.628Z,96849.20
2019-03-22T23:58:08.908Z,96856.41
